Sunday, October 21, 2018, 9:52 PM EDT
Back to Local

KCDW, Caldwell Essex County Airport

Location: Fairfield, NJ, United States Lat: 40.883
Local Time: 9:52 PM EDT ( 1:52 GMT) Lon: -74.283
Time Zone: US/Eastern Elev: 173 ft

Show me the last for .
Show Decoded

2018-10-21 20:53 METAR KCDW 220053Z 00000KT 10SM CLR 02/M02 A3015 RMK AO2 SLP217 T00171022 =
2018-10-21 19:53 METAR KCDW 212353Z 00000KT 10SM CLR 03/M03 A3014 RMK AO2 SLP211 T00281028 10083
                 20028 51031 =
2018-10-21 18:53 METAR KCDW 212253Z 32005KT 10SM CLR 05/M05 A3011 RMK AO2 SLP203 T00501050 =
2018-10-21 17:53 METAR KCDW 212153Z 31014G19KT 10SM CLR 06/M05 A3008 RMK AO2 SLP191 T00561050 =
2018-10-21 16:53 METAR KCDW 212053Z 31013G32KT 10SM CLR 07/M05 A3005 RMK AO2 PK WND 31032/2046
                 SLP180 T00671050 53017 =
2018-10-21 15:53 METAR KCDW 211953Z 33014G23KT 10SM FEW050 07/M04 A3001 RMK AO2 PK WND 31029/1911
                 SLP170 T00721044 =
2018-10-21 14:53 METAR KCDW 211853Z 32015G22KT 10SM BKN048 08/M03 A3000 RMK AO2 PK WND 30027/1810
                 SLP166 T00781033 =
2018-10-21 13:53 METAR KCDW 211753Z 31015G24KT 10SM BKN050 07/M04 A2999 RMK AO2 SLP163 T00721039
                 10072 20061 51009 =
2018-10-21 12:53 METAR KCDW 211653Z 33012G20KT 10SM OVC046 07/M03 A2998 RMK AO2 PK WND 32027/1611
                 SLP157 T00671028 =
2018-10-21 11:53 METAR KCDW 211553Z 31017G24KT 10SM OVC045 07/M03 A2999 RMK AO2 PK WND 34028/1521
                 SLP160 T00671028 =
2018-10-21 10:53 METAR KCDW 211453Z 32012G20KT 10SM OVC046 07/M03 A2997 RMK AO2 PK WND 32026/1409
                 SLP154 T00671028 51035 =
2018-10-21 09:53 METAR KCDW 211353Z 35010G21KT 310V030 10SM OVC043 06/M03 A2995 RMK AO2 PK WND
                 30033/1324 SLP149 T00611028 =
2018-10-21 08:53 METAR KCDW 211253Z 33011G23KT 10SM OVC044 07/M02 A2992 RMK AO2 PK WND 34029/1222
                 SLP137 T00671022 =
2018-10-21 07:53 METAR KCDW 211153Z 31010G19KT 10SM FEW100 07/M01 A2986 RMK AO2 SLP119 70002
                 T00671011 10089 20067 53058 =
2018-10-21 06:53 METAR KCDW 211053Z 32008G19KT 10SM OVC090 08/03 A2979 RMK AO2 SLP092 T00830028 =
2018-10-21 05:53 METAR KCDW 210953Z AUTO 32007KT 10SM OVC060 08/04 A2974 RMK AO2 SLP075 T00830039
                 =
2018-10-21 04:53 METAR KCDW 210853Z AUTO VRB06KT 10SM OVC050 08/04 A2969 RMK AO2 SLP060 T00830044
                 51030 =
2018-10-21 03:53 METAR KCDW 210753Z AUTO 32007KT 10SM SCT029 OVC038 08/06 A2966 RMK AO2 SLP049
                 T00830061 =
2018-10-21 03:39 METAR KCDW 210739Z AUTO 33006KT 10SM BKN028 OVC036 08/06 A2965 RMK AO2 T00830061
                 =
2018-10-21 03:29 METAR KCDW 210729Z AUTO 33006KT 10SM SCT024 OVC034 08/07 A2965 RMK AO2 T00830067
                 =
2018-10-21 02:53 METAR KCDW 210653Z AUTO 31006KT 10SM OVC019 09/08 A2964 RMK AO2 SLP043 T00890078
                 =
2018-10-21 02:26 METAR KCDW 210626Z AUTO 30004KT 10SM FEW016 BKN020 BKN110 09/08 A2963 RMK AO2
                 T00890083 =
2018-10-21 01:53 METAR KCDW 210553Z AUTO 00000KT 10SM BKN100 OVC110 08/08 A2960 RMK AO2 RAE17
                 SLP029 P0000 60002 T00830083 10111 20083 58018 =
2018-10-21 00:53 METAR KCDW 210453Z AUTO 00000KT 9SM -RA OVC050 09/08 A2964 RMK AO2 RAB17 SLP042
                 P0001 T00890083 401780089 =
2018-10-20 23:53 METAR KCDW 210353Z AUTO 20004KT 10SM OVC055 09/08 A2965 RMK AO2 RAE25 SLP045
                 P0000 T00890083 =
2018-10-20 22:53 METAR KCDW 210253Z AUTO 26003KT 6SM -RA BR BKN060 OVC075 09/08 A2966 RMK AO2
                 RAB44 SLP047 P0001 60001 T00940078 51012 =
2018-10-20 21:53 METAR KCDW 210153Z 00000KT 10SM SCT060 OVC090 11/07 A2964 RMK AO2 SLP042
                 T01060067 =

Support USWX by starting your Amazon purchase here.